createdAt,value
2022-10-22T00:00:37.845Z,101044.84
2022-10-22T00:03:39.296Z,101042.25
2022-10-22T00:06:40.849Z,101047.44
2022-10-22T00:09:42.220Z,101049.22
2022-10-22T00:12:43.621Z,101045.78
2022-10-22T00:15:45.053Z,101047.34
2022-10-22T00:18:46.425Z,101056.00
2022-10-22T00:21:47.793Z,101047.44
2022-10-22T00:24:49.149Z,101053.56
2022-10-22T00:27:50.521Z,101056.38
2022-10-22T00:30:59.965Z,101056.78
2022-10-22T00:34:01.837Z,101056.34
2022-10-22T00:37:03.299Z,101056.13
2022-10-22T00:40:05.095Z,101060.94
2022-10-22T00:43:06.604Z,101055.59
2022-10-22T00:46:07.946Z,101064.78
2022-10-22T00:49:09.347Z,101067.03
2022-10-22T00:52:11.578Z,101064.81
2022-10-22T00:55:14.145Z,101075.56
2022-10-22T00:58:16.185Z,101062.97
2022-10-22T01:01:22.540Z,101071.78
2022-10-22T01:04:24.294Z,101065.22
2022-10-22T01:07:25.959Z,101077.63
2022-10-22T01:10:55.071Z,101082.44
2022-10-22T01:14:23.622Z,101086.06
2022-10-22T01:17:34.992Z,101088.59
2022-10-22T01:20:51.195Z,101083.56
2022-10-22T01:24:20.479Z,101083.94
2022-10-22T01:27:34.948Z,101086.97
2022-10-22T01:30:38.257Z,101083.00
2022-10-22T01:33:40.219Z,101086.03
2022-10-22T01:36:43.783Z,101079.28
2022-10-22T01:39:47.502Z,101087.16
2022-10-22T01:43:15.284Z,101083.34
2022-10-22T01:46:18.141Z,101083.53
2022-10-22T01:49:30.346Z,101082.03
2022-10-22T01:53:08.749Z,101078.97
2022-10-22T01:56:16.608Z,101078.22
2022-10-22T01:59:26.805Z,101071.38
2022-10-22T02:05:59.843Z,101065.59
2022-10-22T02:09:03.200Z,101062.50
2022-10-22T02:12:07.052Z,101063.06
2022-10-22T02:15:11.462Z,101067.47
2022-10-22T02:18:15.230Z,101065.88
2022-10-22T02:21:16.819Z,101065.16
2022-10-22T02:24:18.914Z,101055.72
2022-10-22T02:27:31.706Z,101047.19
2022-10-22T02:30:35.674Z,101044.69
2022-10-22T02:33:42.210Z,101038.66
2022-10-22T02:36:48.092Z,101041.34
2022-10-22T02:39:52.902Z,101050.97
2022-10-22T02:42:54.303Z,101049.41
2022-10-22T02:45:55.678Z,101051.91
2022-10-22T02:48:57.010Z,101050.81
2022-10-22T02:51:58.326Z,101045.44
2022-10-22T02:54:59.647Z,101052.38
2022-10-22T02:58:00.959Z,101050.72
2022-10-22T03:01:02.448Z,101055.06
2022-10-22T03:04:04.199Z,101055.06
2022-10-22T03:07:05.608Z,101063.06
2022-10-22T03:10:07.458Z,101067.53
2022-10-22T03:13:08.903Z,101058.25
2022-10-22T03:16:10.253Z,101061.03
2022-10-22T03:19:11.571Z,101068.31
2022-10-22T03:22:23.436Z,101078.06
2022-10-22T03:25:27.492Z,101069.72
2022-10-22T03:28:30.667Z,101076.84
2022-10-22T03:31:32.040Z,101076.06
2022-10-22T03:34:33.432Z,101088.28
2022-10-22T03:37:36.032Z,101093.47
2022-10-22T03:40:37.920Z,101099.63
2022-10-22T03:43:39.477Z,101104.56
2022-10-22T03:46:40.876Z,101104.56
2022-10-22T03:49:42.228Z,101109.81
2022-10-22T03:52:43.553Z,101107.22
2022-10-22T03:55:44.878Z,101119.25
2022-10-22T03:58:46.214Z,101113.22
2022-10-22T04:01:47.558Z,101120.09
2022-10-22T04:04:48.926Z,101121.00
2022-10-22T04:07:50.269Z,101117.75
2022-10-22T04:10:51.865Z,101123.25
2022-10-22T04:13:53.213Z,101124.59
2022-10-22T04:16:54.605Z,101117.81
2022-10-22T04:19:55.970Z,101122.25
2022-10-22T04:22:57.282Z,101118.81
2022-10-22T04:26:00.054Z,101120.38
2022-10-22T04:29:01.567Z,101116.34
2022-10-22T04:32:02.910Z,101126.84
2022-10-22T04:35:04.762Z,101123.41
2022-10-22T04:38:06.122Z,101122.22
2022-10-22T04:41:19.355Z,101116.63
2022-10-22T04:44:20.686Z,101119.38
2022-10-22T04:47:22.195Z,101112.28
2022-10-22T04:50:23.543Z,101120.09
2022-10-22T04:53:27.000Z,101120.44
2022-10-22T04:56:30.154Z,101117.06
2022-10-22T04:59:31.483Z,101121.34
2022-10-22T05:02:32.847Z,101127.94
2022-10-22T05:05:34.171Z,101131.88
2022-10-22T05:08:36.078Z,101139.44
2022-10-22T05:11:38.800Z,101144.34
2022-10-22T05:14:43.966Z,101153.03
2022-10-22T05:17:46.218Z,101153.78
2022-10-22T05:20:47.545Z,101149.69
2022-10-22T05:23:50.343Z,101143.81
2022-10-22T05:26:56.856Z,101144.00
2022-10-22T05:29:58.296Z,101147.47
2022-10-22T05:32:59.692Z,101144.91
2022-10-22T05:36:02.119Z,101145.84
2022-10-22T05:39:03.965Z,101136.47
2022-10-22T05:42:05.360Z,101138.97
2022-10-22T05:45:06.912Z,101141.66
2022-10-22T05:48:09.473Z,101146.81
2022-10-22T05:51:13.077Z,101147.72
2022-10-22T05:54:19.601Z,101144.38
2022-10-22T05:57:20.938Z,101140.25
2022-10-22T06:00:22.277Z,101135.09
2022-10-22T06:03:23.585Z,101140.25
2022-10-22T06:06:30.108Z,101145.59
2022-10-22T06:12:42.909Z,101150.22
2022-10-22T06:15:44.486Z,101163.16
2022-10-22T06:18:45.934Z,101161.50
2022-10-22T06:21:48.409Z,101167.53
2022-10-22T06:24:49.742Z,101165.88
2022-10-22T06:27:51.070Z,101168.38
2022-10-22T06:30:52.431Z,101175.25
2022-10-22T06:33:54.223Z,101177.06
2022-10-22T06:36:55.710Z,101186.63
2022-10-22T06:39:57.047Z,101185.88
2022-10-22T06:43:01.694Z,101185.72
2022-10-22T06:46:05.861Z,101194.16
2022-10-22T06:49:07.248Z,101188.72
2022-10-22T06:52:08.599Z,101196.22
2022-10-22T06:55:10.499Z,101190.78
2022-10-22T06:58:11.844Z,101191.44
2022-10-22T07:01:14.594Z,101201.56
2022-10-22T07:04:16.438Z,101205.69
2022-10-22T07:07:17.974Z,101201.09
2022-10-22T07:10:19.764Z,101217.22
2022-10-22T07:13:22.443Z,101211.97
2022-10-22T07:16:28.115Z,101213.50
2022-10-22T07:19:33.919Z,101214.94
2022-10-22T07:22:35.278Z,101214.53
2022-10-22T07:25:36.684Z,101227.16
2022-10-22T07:28:38.199Z,101224.84
2022-10-22T07:31:39.560Z,101229.25
2022-10-22T07:34:43.138Z,101236.28
2022-10-22T07:37:45.394Z,101239.56
2022-10-22T07:40:46.728Z,101240.56
2022-10-22T07:43:48.142Z,101244.63
2022-10-22T07:46:49.464Z,101232.31
2022-10-22T07:49:50.808Z,101241.72
2022-10-22T07:52:53.831Z,101240.78
2022-10-22T07:55:57.641Z,101241.66
2022-10-22T07:58:59.096Z,101239.28
2022-10-22T08:02:00.571Z,101254.28
2022-10-22T08:05:01.926Z,101259.50
2022-10-22T08:08:03.320Z,101264.06
2022-10-22T08:11:04.752Z,101262.38
2022-10-22T08:14:06.101Z,101272.84
2022-10-22T08:17:07.444Z,101268.81
2022-10-22T08:20:09.210Z,101273.38
2022-10-22T08:23:10.634Z,101274.47
2022-10-22T08:26:11.991Z,101272.78
2022-10-22T08:29:13.354Z,101274.72
2022-10-22T08:32:14.973Z,101275.69
2022-10-22T08:35:17.665Z,101271.59
2022-10-22T08:38:19.433Z,101275.25
2022-10-22T08:41:23.111Z,101265.59
2022-10-22T08:44:45.456Z,101269.22
2022-10-22T08:48:26.691Z,101267.50
2022-10-22T08:51:32.803Z,101266.09
2022-10-22T08:54:56.013Z,101265.00
2022-10-22T08:58:03.894Z,101274.19
2022-10-22T09:01:14.863Z,101267.44
2022-10-22T09:04:28.727Z,101266.81
2022-10-22T09:07:30.099Z,101265.31
2022-10-22T09:10:36.859Z,101258.69
2022-10-22T09:13:39.988Z,101254.31
2022-10-22T09:16:59.993Z,101259.88
2022-10-22T09:20:13.359Z,101255.09
2022-10-22T09:23:20.663Z,101257.53
2022-10-22T09:26:22.044Z,101252.00
2022-10-22T09:29:31.196Z,101241.03
2022-10-22T09:32:32.780Z,101253.81
2022-10-22T09:35:46.727Z,101253.69
2022-10-22T09:38:51.269Z,101250.91
2022-10-22T09:41:52.697Z,101252.97
2022-10-22T09:44:59.437Z,101258.03
2022-10-22T09:48:18.543Z,101260.38
2022-10-22T09:51:48.065Z,101257.88
2022-10-22T09:54:52.419Z,101260.13
2022-10-22T09:57:56.678Z,101260.88
2022-10-22T10:01:00.589Z,101261.66
2022-10-22T10:04:13.474Z,101254.16
2022-10-22T10:07:22.024Z,101248.81
2022-10-22T10:10:41.793Z,101247.72
2022-10-22T10:13:52.250Z,101249.00
2022-10-22T10:17:01.671Z,101254.25
2022-10-22T10:20:15.290Z,101255.66
2022-10-22T10:23:36.184Z,101252.53
2022-10-22T10:26:48.094Z,101260.16
2022-10-22T10:29:58.574Z,101253.88
2022-10-22T10:33:22.010Z,101257.97
2022-10-22T10:36:27.330Z,101258.09
2022-10-22T10:39:41.611Z,101262.50
2022-10-22T10:42:49.246Z,101256.03
2022-10-22T10:45:59.555Z,101256.63
2022-10-22T10:49:19.039Z,101261.81
2022-10-22T10:52:31.760Z,101264.88
2022-10-22T10:55:41.925Z,101260.75
2022-10-22T10:59:02.949Z,101264.84
2022-10-22T11:02:10.286Z,101264.31
2022-10-22T11:05:32.146Z,101266.38
2022-10-22T11:08:38.544Z,101264.56
2022-10-22T11:11:47.207Z,101267.53
2022-10-22T11:15:11.117Z,101275.88
2022-10-22T11:18:37.456Z,101275.38
2022-10-22T11:21:45.640Z,101271.81
2022-10-22T11:24:56.380Z,101270.38
2022-10-22T11:28:13.265Z,101268.16
2022-10-22T11:31:17.327Z,101264.75
2022-10-22T11:34:39.637Z,101262.00
2022-10-22T11:37:45.499Z,101265.25
2022-10-22T11:41:00.317Z,101274.97
2022-10-22T11:44:22.841Z,101274.06
2022-10-22T11:47:25.827Z,101273.13
2022-10-22T11:50:28.337Z,101265.38
2022-10-22T11:53:35.326Z,101269.41
2022-10-22T11:56:38.655Z,101275.09
2022-10-22T11:59:47.289Z,101272.75
2022-10-22T12:03:03.046Z,101273.38
2022-10-22T12:06:10.339Z,101277.50
2022-10-22T12:09:12.756Z,101285.84
2022-10-22T12:12:15.633Z,101279.78
2022-10-22T12:15:27.436Z,101278.59
2022-10-22T12:18:42.538Z,101282.38
2022-10-22T12:21:48.717Z,101282.06
2022-10-22T12:24:53.795Z,101274.91
2022-10-22T12:27:58.574Z,101274.94
2022-10-22T12:30:59.934Z,101276.72
2022-10-22T12:34:01.443Z,101279.31
2022-10-22T12:37:04.483Z,101282.25
2022-10-22T12:40:19.636Z,101279.34
2022-10-22T12:43:29.743Z,101276.97
2022-10-22T12:46:34.513Z,101282.41
2022-10-22T12:49:42.570Z,101289.03
2022-10-22T12:52:44.056Z,101290.50
2022-10-22T12:55:52.160Z,101284.91
2022-10-22T12:59:00.278Z,101289.66
2022-10-22T13:02:02.444Z,101285.97
2022-10-22T13:05:14.788Z,101289.53
2022-10-22T13:11:34.696Z,101290.97
2022-10-22T13:14:38.071Z,101290.44
2022-10-22T13:17:41.596Z,101289.25
2022-10-22T13:20:50.696Z,101292.66
2022-10-22T13:24:03.641Z,101288.69
2022-10-22T13:27:09.346Z,101293.13
2022-10-22T13:30:19.429Z,101292.19
2022-10-22T13:33:39.465Z,101293.13
2022-10-22T13:36:40.841Z,101284.81
2022-10-22T13:39:42.190Z,101286.47
2022-10-22T13:42:43.895Z,101277.56
2022-10-22T13:45:47.670Z,101283.84
2022-10-22T13:48:50.843Z,101284.44
2022-10-22T13:51:52.256Z,101290.63
2022-10-22T13:54:53.589Z,101290.50
2022-10-22T13:58:10.176Z,101286.19
2022-10-22T14:01:20.982Z,101283.72
2022-10-22T14:04:22.375Z,101285.00
2022-10-22T14:07:23.731Z,101279.59
2022-10-22T14:10:25.622Z,101283.03
2022-10-22T14:13:26.991Z,101282.38
2022-10-22T14:16:28.944Z,101285.88
2022-10-22T14:19:30.624Z,101289.44
2022-10-22T14:22:32.015Z,101289.78
2022-10-22T14:25:33.370Z,101285.53
2022-10-22T14:28:41.356Z,101290.31
2022-10-22T14:31:53.209Z,101294.34
2022-10-22T14:34:54.543Z,101297.31
2022-10-22T14:37:55.888Z,101301.47
2022-10-22T14:40:59.296Z,101301.22
2022-10-22T14:44:00.656Z,101302.78
2022-10-22T14:47:02.061Z,101290.63
2022-10-22T14:50:03.848Z,101306.28
2022-10-22T14:53:05.254Z,101308.38
2022-10-22T14:56:06.904Z,101309.72
2022-10-22T14:59:08.260Z,101307.94
2022-10-22T15:02:12.564Z,101304.88
2022-10-22T15:05:14.958Z,101320.81
2022-10-22T15:08:16.341Z,101320.34
2022-10-22T15:11:17.689Z,101330.69
2022-10-22T15:14:19.077Z,101332.34
2022-10-22T15:17:20.553Z,101332.69
2022-10-22T15:20:21.873Z,101337.13
2022-10-22T15:23:23.289Z,101341.88
2022-10-22T15:26:24.706Z,101345.56
2022-10-22T15:29:26.123Z,101344.09
2022-10-22T15:32:28.007Z,101352.25
2022-10-22T15:35:29.377Z,101353.41
2022-10-22T15:41:37.727Z,101358.81
2022-10-22T15:44:39.092Z,101363.84
2022-10-22T15:47:40.763Z,101370.22
2022-10-22T15:50:42.311Z,101372.44
2022-10-22T15:53:44.245Z,101380.47
2022-10-22T15:56:46.257Z,101378.09
2022-10-22T15:59:47.757Z,101382.56
2022-10-22T16:02:49.156Z,101389.88
2022-10-22T16:05:51.870Z,101391.66
2022-10-22T16:08:54.032Z,101398.84
2022-10-22T16:11:55.890Z,101390.53
2022-10-22T16:14:57.235Z,101395.75
2022-10-22T16:17:58.580Z,101400.97
2022-10-22T16:20:59.917Z,101403.78
2022-10-22T16:24:05.998Z,101404.06
2022-10-22T16:27:09.468Z,101401.88
2022-10-22T16:30:11.303Z,101414.41
2022-10-22T16:33:12.640Z,101422.31
2022-10-22T16:36:17.108Z,101427.31
2022-10-22T16:39:18.474Z,101429.28
2022-10-22T16:42:19.804Z,101441.81
2022-10-22T16:45:21.159Z,101447.16
2022-10-22T16:48:22.580Z,101448.91
2022-10-22T16:51:26.380Z,101445.13
2022-10-22T16:54:27.876Z,101454.47
2022-10-22T16:57:29.276Z,101462.72
2022-10-22T17:00:30.965Z,101459.47
2022-10-22T17:03:32.314Z,101462.06
2022-10-22T17:06:33.687Z,101463.31
2022-10-22T17:09:35.117Z,101470.47
2022-10-22T17:12:36.709Z,101470.06
2022-10-22T17:15:38.061Z,101473.97
2022-10-22T17:18:40.517Z,101476.97
2022-10-22T17:21:42.581Z,101486.28
2022-10-22T17:24:43.970Z,101486.78
2022-10-22T17:27:45.413Z,101495.81
2022-10-22T17:30:46.778Z,101491.22
2022-10-22T17:33:49.825Z,101497.94
2022-10-22T17:36:51.103Z,101505.19
2022-10-22T17:39:52.532Z,101516.53
2022-10-22T17:42:53.906Z,101506.75
2022-10-22T17:46:04.432Z,101505.94
2022-10-22T17:49:12.071Z,101513.94
2022-10-22T17:52:14.379Z,101528.22
2022-10-22T17:55:15.771Z,101521.59
2022-10-22T17:58:17.127Z,101531.00
2022-10-22T18:01:28.119Z,101532.78
2022-10-22T18:04:31.312Z,101537.69
2022-10-22T18:07:32.596Z,101537.22
2022-10-22T18:10:39.764Z,101542.06
2022-10-22T18:13:41.359Z,101541.59
2022-10-22T18:16:42.713Z,101539.56
2022-10-22T18:19:44.037Z,101540.22
2022-10-22T18:22:45.384Z,101543.66
2022-10-22T18:25:46.918Z,101543.66
2022-10-22T18:28:48.725Z,101550.63
2022-10-22T18:31:50.064Z,101546.34
2022-10-22T18:34:51.398Z,101548.84
2022-10-22T18:37:52.697Z,101550.81
2022-10-22T18:40:54.041Z,101553.44
2022-10-22T18:43:58.193Z,101557.66
2022-10-22T18:46:59.522Z,101553.50
2022-10-22T18:50:00.853Z,101552.84
2022-10-22T18:53:02.230Z,101559.41
2022-10-22T18:56:08.734Z,101564.25
2022-10-22T18:59:28.402Z,101565.91
2022-10-22T19:02:29.730Z,101565.41
2022-10-22T19:05:31.418Z,101564.09
2022-10-22T19:08:34.426Z,101570.59
2022-10-22T19:11:35.822Z,101565.44
2022-10-22T19:14:37.195Z,101575.97
2022-10-22T19:17:38.598Z,101573.38
2022-10-22T19:20:39.990Z,101576.38
2022-10-22T19:23:41.397Z,101572.31
2022-10-22T19:26:42.943Z,101576.59
2022-10-22T19:29:45.799Z,101574.84
2022-10-22T19:32:47.427Z,101582.06
2022-10-22T19:35:48.771Z,101583.91
2022-10-22T19:38:50.546Z,101584.28
2022-10-22T19:41:51.891Z,101578.75
2022-10-22T19:44:53.215Z,101587.78
2022-10-22T19:47:54.547Z,101595.03
2022-10-22T19:51:08.897Z,101599.78
2022-10-22T19:54:12.923Z,101608.66
2022-10-22T19:57:17.179Z,101614.06
2022-10-22T20:00:18.528Z,101611.22
2022-10-22T20:03:20.809Z,101620.19
2022-10-22T20:06:22.151Z,101631.75
2022-10-22T20:09:23.622Z,101626.81
2022-10-22T20:12:25.033Z,101621.84
2022-10-22T20:15:26.421Z,101632.47
2022-10-22T20:18:27.798Z,101637.06
2022-10-22T20:21:29.581Z,101635.63
2022-10-22T20:24:30.973Z,101635.09
2022-10-22T20:27:32.293Z,101637.84
2022-10-22T20:30:33.814Z,101639.84
2022-10-22T20:33:35.207Z,101644.28
2022-10-22T20:36:36.613Z,101648.84
2022-10-22T20:39:38.001Z,101643.06
2022-10-22T20:42:39.803Z,101651.91
2022-10-22T20:45:41.405Z,101653.84
2022-10-22T20:48:42.829Z,101651.31
2022-10-22T20:51:44.534Z,101655.81
2022-10-22T20:54:45.998Z,101645.69
2022-10-22T20:57:48.068Z,101657.31
2022-10-22T21:00:50.005Z,101657.88
2022-10-22T21:03:52.371Z,101652.97
2022-10-22T21:06:54.331Z,101659.38
2022-10-22T21:09:55.682Z,101661.13
2022-10-22T21:12:57.159Z,101661.22
2022-10-22T21:15:59.252Z,101655.38
2022-10-22T21:19:00.999Z,101659.78
2022-10-22T21:22:02.913Z,101658.88
2022-10-22T21:25:04.536Z,101660.63
2022-10-22T21:28:05.856Z,101662.53
2022-10-22T21:31:09.696Z,101658.31
2022-10-22T21:34:11.527Z,101664.56
2022-10-22T21:37:12.895Z,101664.78
2022-10-22T21:40:14.240Z,101667.53
2022-10-22T21:43:16.524Z,101666.75
2022-10-22T21:46:20.501Z,101665.28
2022-10-22T21:49:21.861Z,101671.59
2022-10-22T21:52:23.328Z,101667.47
2022-10-22T21:55:24.740Z,101668.53
2022-10-22T21:58:26.137Z,101665.16
2022-10-22T22:01:27.624Z,101667.06
2022-10-22T22:04:29.092Z,101665.53
2022-10-22T22:07:30.453Z,101663.06
2022-10-22T22:10:31.839Z,101663.06
2022-10-22T22:13:33.609Z,101661.38
2022-10-22T22:16:35.280Z,101665.75
2022-10-22T22:19:38.474Z,101673.53
2022-10-22T22:22:40.155Z,101666.81
2022-10-22T22:25:41.642Z,101669.38
2022-10-22T22:28:43.017Z,101660.06
2022-10-22T22:31:44.362Z,101666.16
2022-10-22T22:34:45.682Z,101663.63
2022-10-22T22:37:47.023Z,101666.28
2022-10-22T22:40:48.381Z,101666.41
2022-10-22T22:43:49.903Z,101663.88
2022-10-22T22:46:51.254Z,101658.78
2022-10-22T22:49:52.602Z,101667.34
2022-10-22T22:52:53.971Z,101667.53
2022-10-22T22:56:26.418Z,101667.81
2022-10-22T22:59:27.806Z,101677.13
2022-10-22T23:02:29.152Z,101674.59
2022-10-22T23:05:30.495Z,101681.50
2022-10-22T23:08:32.255Z,101670.31
2022-10-22T23:11:33.860Z,101671.94
2022-10-22T23:14:35.184Z,101682.97
2022-10-22T23:20:42.764Z,101682.44
2022-10-22T23:23:53.475Z,101675.75
2022-10-22T23:26:56.208Z,101677.72
2022-10-22T23:29:57.547Z,101683.03
2022-10-22T23:32:58.879Z,101687.50
2022-10-22T23:36:01.689Z,101684.19
2022-10-22T23:39:09.616Z,101682.78
2022-10-22T23:42:10.984Z,101687.25
2022-10-22T23:45:12.345Z,101679.63
2022-10-22T23:48:13.680Z,101678.84
2022-10-22T23:51:17.158Z,101679.00
2022-10-22T23:54:18.961Z,101686.09
2022-10-22T23:57:20.352Z,101682.78
